sensor_id;sensor_type;location;lat;lon;timestamp;pressure;altitude;pressure_sealevel;temperature;humidity
73101;BME280;61288;53.446;-2.266;2022-09-09T00:01:35;100097.28;;;14.19;82.22
73101;BME280;61288;53.446;-2.266;2022-09-09T00:04:13;100097.28;;;14.19;82.14
73101;BME280;61288;53.446;-2.266;2022-09-09T00:06:46;100097.16;;;14.20;82.19
73101;BME280;61288;53.446;-2.266;2022-09-09T00:09:21;100090.19;;;14.21;82.02
73101;BME280;61288;53.446;-2.266;2022-09-09T00:12:25;100098.94;;;14.20;81.74
73101;BME280;61288;53.446;-2.266;2022-09-09T00:15:20;100101.84;;;14.15;81.73
73101;BME280;61288;53.446;-2.266;2022-09-09T00:18:39;100103.19;;;14.08;82.88
73101;BME280;61288;53.446;-2.266;2022-09-09T00:23:25;100099.50;;;13.97;82.89
73101;BME280;61288;53.446;-2.266;2022-09-09T00:26:09;100103.78;;;13.98;82.65
73101;BME280;61288;53.446;-2.266;2022-09-09T00:29:05;100098.44;;;14.00;82.67
73101;BME280;61288;53.446;-2.266;2022-09-09T00:31:35;100106.19;;;14.01;82.71
73101;BME280;61288;53.446;-2.266;2022-09-09T00:34:24;100107.94;;;14.01;83.04
73101;BME280;61288;53.446;-2.266;2022-09-09T00:36:52;100095.03;;;13.99;82.99
73101;BME280;61288;53.446;-2.266;2022-09-09T00:39:36;100109.72;;;14.00;82.82
73101;BME280;61288;53.446;-2.266;2022-09-09T00:42:16;100099.19;;;14.02;82.61
73101;BME280;61288;53.446;-2.266;2022-09-09T00:44:59;100103.47;;;14.03;82.83
73101;BME280;61288;53.446;-2.266;2022-09-09T00:47:50;100101.72;;;14.04;83.43
73101;BME280;61288;53.446;-2.266;2022-09-09T00:53:39;100100.56;;;14.08;83.23
73101;BME280;61288;53.446;-2.266;2022-09-09T00:56:14;100100.47;;;14.09;83.28
73101;BME280;61288;53.446;-2.266;2022-09-09T00:58:43;100098.25;;;14.03;83.45
73101;BME280;61288;53.446;-2.266;2022-09-09T01:01:12;100096.69;;;14.00;83.56
73101;BME280;61288;53.446;-2.266;2022-09-09T01:03:49;100099.38;;;13.99;83.55
73101;BME280;61288;53.446;-2.266;2022-09-09T01:09:08;100102.84;;;13.99;83.26
73101;BME280;61288;53.446;-2.266;2022-09-09T01:11:52;100107.13;;;14.00;83.62
73101;BME280;61288;53.446;-2.266;2022-09-09T01:17:22;100108.88;;;14.00;83.39
73101;BME280;61288;53.446;-2.266;2022-09-09T01:23:06;100107.41;;;13.96;84.27
73101;BME280;61288;53.446;-2.266;2022-09-09T01:28:16;100110.94;;;13.95;84.37
73101;BME280;61288;53.446;-2.266;2022-09-09T01:30:45;100116.88;;;13.97;84.42
73101;BME280;61288;53.446;-2.266;2022-09-09T01:33:16;100110.75;;;13.98;84.71
73101;BME280;61288;53.446;-2.266;2022-09-09T01:38:12;100114.09;;;14.00;84.86
73101;BME280;61288;53.446;-2.266;2022-09-09T01:40:41;100115.75;;;14.01;84.99
73101;BME280;61288;53.446;-2.266;2022-09-09T01:43:07;100116.59;;;14.01;84.80
73101;BME280;61288;53.446;-2.266;2022-09-09T01:45:33;100109.53;;;14.04;84.95
73101;BME280;61288;53.446;-2.266;2022-09-09T01:47:59;100113.69;;;14.06;85.04
73101;BME280;61288;53.446;-2.266;2022-09-09T01:50:26;100111.81;;;14.08;84.71
73101;BME280;61288;53.446;-2.266;2022-09-09T01:52:58;100113.59;;;14.08;84.75
73101;BME280;61288;53.446;-2.266;2022-09-09T01:55:33;100110.25;;;14.06;84.69
73101;BME280;61288;53.446;-2.266;2022-09-09T01:58:32;100105.03;;;14.06;84.54
73101;BME280;61288;53.446;-2.266;2022-09-09T02:03:54;100112.84;;;14.06;84.68
73101;BME280;61288;53.446;-2.266;2022-09-09T02:08:58;100106.91;;;14.04;84.50
73101;BME280;61288;53.446;-2.266;2022-09-09T02:11:27;100103.47;;;14.03;85.13
73101;BME280;61288;53.446;-2.266;2022-09-09T02:13:57;100100.97;;;14.01;84.64
73101;BME280;61288;53.446;-2.266;2022-09-09T02:16:38;100097.50;;;14.01;84.85
73101;BME280;61288;53.446;-2.266;2022-09-09T02:19:11;100104.41;;;14.02;85.27
73101;BME280;61288;53.446;-2.266;2022-09-09T02:21:42;100096.59;;;14.02;84.84
73101;BME280;61288;53.446;-2.266;2022-09-09T02:24:11;100101.91;;;14.00;85.28
73101;BME280;61288;53.446;-2.266;2022-09-09T02:26:41;100105.34;;;14.01;84.97
73101;BME280;61288;53.446;-2.266;2022-09-09T02:29:12;100102.72;;;14.01;85.06
73101;BME280;61288;53.446;-2.266;2022-09-09T02:31:41;100096.69;;;14.00;85.16
73101;BME280;61288;53.446;-2.266;2022-09-09T02:34:09;100108.06;;;13.99;85.72
73101;BME280;61288;53.446;-2.266;2022-09-09T02:36:38;100101.16;;;13.98;85.43
73101;BME280;61288;53.446;-2.266;2022-09-09T02:39:12;100101.06;;;14.00;85.39
73101;BME280;61288;53.446;-2.266;2022-09-09T02:41:40;100099.19;;;14.02;85.43
73101;BME280;61288;53.446;-2.266;2022-09-09T02:44:15;100103.47;;;14.03;85.54
73101;BME280;61288;53.446;-2.266;2022-09-09T02:52:13;100106.06;;;14.03;85.28
73101;BME280;61288;53.446;-2.266;2022-09-09T02:54:42;100101.72;;;14.04;85.33
73101;BME280;61288;53.446;-2.266;2022-09-09T02:57:39;100103.47;;;14.03;85.31
73101;BME280;61288;53.446;-2.266;2022-09-09T03:00:06;100110.34;;;14.04;85.11
73101;BME280;61288;53.446;-2.266;2022-09-09T03:02:32;100099.19;;;14.02;85.35
73101;BME280;61288;53.446;-2.266;2022-09-09T03:04:59;100107.94;;;14.01;85.14
73101;BME280;61288;53.446;-2.266;2022-09-09T03:07:25;100109.59;;;14.02;85.29
73101;BME280;61288;53.446;-2.266;2022-09-09T03:09:52;100101.78;;;14.02;85.42
73101;BME280;61288;53.446;-2.266;2022-09-09T03:12:19;100112.22;;;14.02;86.10
73101;BME280;61288;53.446;-2.266;2022-09-09T03:14:45;100110.53;;;14.01;85.93
73101;BME280;61288;53.446;-2.266;2022-09-09T03:17:12;100122.75;;;14.00;85.54
73101;BME280;61288;53.446;-2.266;2022-09-09T03:19:38;100110.75;;;13.98;85.77
73101;BME280;61288;53.446;-2.266;2022-09-09T03:22:10;100110.00;;;13.96;85.95
73101;BME280;61288;53.446;-2.266;2022-09-09T03:24:35;100115.22;;;13.96;85.96
73101;BME280;61288;53.446;-2.266;2022-09-09T03:27:01;100115.22;;;13.96;85.49
73101;BME280;61288;53.446;-2.266;2022-09-09T03:29:27;100120.34;;;13.97;85.68
73101;BME280;61288;53.446;-2.266;2022-09-09T03:31:53;100115.22;;;13.96;85.63
73101;BME280;61288;53.446;-2.266;2022-09-09T03:34:18;100116.16;;;13.95;85.67
73101;BME280;61288;53.446;-2.266;2022-09-09T03:36:44;100117.09;;;13.94;86.02
73101;BME280;61288;53.446;-2.266;2022-09-09T03:39:10;100118.94;;;13.92;86.14
73101;BME280;61288;53.446;-2.266;2022-09-09T03:41:35;100125.91;;;13.91;86.10
73101;BME280;61288;53.446;-2.266;2022-09-09T03:44:02;100120.72;;;13.91;86.14
73101;BME280;61288;53.446;-2.266;2022-09-09T03:46:28;100117.28;;;13.91;86.29
73101;BME280;61288;53.446;-2.266;2022-09-09T03:48:54;100125.00;;;13.92;86.25
73101;BME280;61288;53.446;-2.266;2022-09-09T03:51:20;100123.22;;;13.93;86.15
73101;BME280;61288;53.446;-2.266;2022-09-09T03:53:47;100126.56;;;13.95;86.19
73101;BME280;61288;53.446;-2.266;2022-09-09T03:56:13;100132.50;;;13.97;86.50
73101;BME280;61288;53.446;-2.266;2022-09-09T03:58:38;100133.38;;;13.97;86.37
73101;BME280;61288;53.446;-2.266;2022-09-09T04:01:10;100133.38;;;13.97;86.31
73101;BME280;61288;53.446;-2.266;2022-09-09T04:03:39;100138.47;;;13.99;86.26
73101;BME280;61288;53.446;-2.266;2022-09-09T04:06:06;100138.56;;;13.97;86.52
73101;BME280;61288;53.446;-2.266;2022-09-09T04:08:33;100135.22;;;13.95;86.62
73101;BME280;61288;53.446;-2.266;2022-09-09T04:11:00;100135.22;;;13.95;86.56
73101;BME280;61288;53.446;-2.266;2022-09-09T04:13:27;100130.97;;;13.94;86.59
73101;BME280;61288;53.446;-2.266;2022-09-09T04:15:55;100130.97;;;13.94;86.44
73101;BME280;61288;53.446;-2.266;2022-09-09T04:18:23;100138.66;;;13.96;86.43
73101;BME280;61288;53.446;-2.266;2022-09-09T04:20:50;100135.31;;;13.94;86.32
73101;BME280;61288;53.446;-2.266;2022-09-09T04:23:17;100132.72;;;13.94;86.28
73101;BME280;61288;53.446;-2.266;2022-09-09T04:25:46;100139.78;;;13.92;86.63
73101;BME280;61288;53.446;-2.266;2022-09-09T04:28:15;100137.19;;;13.92;86.56
73101;BME280;61288;53.446;-2.266;2022-09-09T04:36:25;100137.91;;;13.94;86.95
73101;BME280;61288;53.446;-2.266;2022-09-09T04:38:50;100137.09;;;13.93;87.03
73101;BME280;61288;53.446;-2.266;2022-09-09T04:41:16;100146.47;;;13.96;86.93
73101;BME280;61288;53.446;-2.266;2022-09-09T04:43:42;100141.25;;;13.96;86.80
73101;BME280;61288;53.446;-2.266;2022-09-09T04:46:08;100140.44;;;13.95;86.51
73101;BME280;61288;53.446;-2.266;2022-09-09T04:48:33;100144.72;;;13.96;86.45
73101;BME280;61288;53.446;-2.266;2022-09-09T04:51:05;100150.75;;;13.97;86.62
73101;BME280;61288;53.446;-2.266;2022-09-09T04:53:31;100147.31;;;13.96;86.53
73101;BME280;61288;53.446;-2.266;2022-09-09T04:56:10;100155.97;;;13.97;86.51
73101;BME280;61288;53.446;-2.266;2022-09-09T04:58:37;100157.53;;;13.99;86.73
73101;BME280;61288;53.446;-2.266;2022-09-09T05:01:10;100152.34;;;13.99;86.78
73101;BME280;61288;53.446;-2.266;2022-09-09T05:03:36;100150.47;;;14.01;86.67
73101;BME280;61288;53.446;-2.266;2022-09-09T05:06:09;100153.81;;;14.04;86.65
73101;BME280;61288;53.446;-2.266;2022-09-09T05:08:39;100155.56;;;14.03;86.74
73101;BME280;61288;53.446;-2.266;2022-09-09T05:11:26;100161.69;;;14.02;86.57
73101;BME280;61288;53.446;-2.266;2022-09-09T05:13:52;100163.38;;;14.03;86.62
73101;BME280;61288;53.446;-2.266;2022-09-09T05:16:20;100166.91;;;14.02;86.61
73101;BME280;61288;53.446;-2.266;2022-09-09T05:18:46;100164.31;;;14.02;86.50
73101;BME280;61288;53.446;-2.266;2022-09-09T05:21:13;100169.50;;;14.02;86.77
73101;BME280;61288;53.446;-2.266;2022-09-09T05:23:40;100172.22;;;14.00;86.56
73101;BME280;61288;53.446;-2.266;2022-09-09T05:26:09;100175.66;;;14.01;86.47
73101;BME280;61288;53.446;-2.266;2022-09-09T05:28:36;100175.66;;;14.01;86.42
73101;BME280;61288;53.446;-2.266;2022-09-09T05:31:06;100174.84;;;14.00;86.63
73101;BME280;61288;53.446;-2.266;2022-09-09T05:33:34;100179.13;;;14.01;86.56
73101;BME280;61288;53.446;-2.266;2022-09-09T05:36:02;100169.50;;;14.02;86.38
73101;BME280;61288;53.446;-2.266;2022-09-09T05:38:30;100176.50;;;14.01;86.39
73101;BME280;61288;53.446;-2.266;2022-09-09T05:40:55;100172.31;;;13.99;86.39
73101;BME280;61288;53.446;-2.266;2022-09-09T05:43:23;100183.59;;;13.99;86.60
73101;BME280;61288;53.446;-2.266;2022-09-09T05:45:59;100180.13;;;13.99;86.60
73101;BME280;61288;53.446;-2.266;2022-09-09T05:48:30;100183.59;;;13.99;86.52
73101;BME280;61288;53.446;-2.266;2022-09-09T05:50:56;100184.41;;;14.00;86.59
73101;BME280;61288;53.446;-2.266;2022-09-09T05:53:22;100187.75;;;14.02;86.99
73101;BME280;61288;53.446;-2.266;2022-09-09T05:55:49;100191.22;;;14.03;87.05
73101;BME280;61288;53.446;-2.266;2022-09-09T05:58:14;100189.34;;;14.05;87.52
73101;BME280;61288;53.446;-2.266;2022-09-09T06:00:43;100197.88;;;14.07;87.20
73101;BME280;61288;53.446;-2.266;2022-09-09T06:03:12;100196.97;;;14.08;87.23
73101;BME280;61288;53.446;-2.266;2022-09-09T06:05:39;100194.44;;;14.06;87.40
73101;BME280;61288;53.446;-2.266;2022-09-09T06:08:05;100198.81;;;14.06;87.16
73101;BME280;61288;53.446;-2.266;2022-09-09T06:10:33;100197.03;;;14.06;86.90
73101;BME280;61288;53.446;-2.266;2022-09-09T06:12:59;100203.91;;;14.07;87.18
73101;BME280;61288;53.446;-2.266;2022-09-09T06:15:25;100206.53;;;14.07;86.91
73101;BME280;61288;53.446;-2.266;2022-09-09T06:17:54;100208.19;;;14.08;86.70
73101;BME280;61288;53.446;-2.266;2022-09-09T06:20:21;100202.25;;;14.06;87.07
73101;BME280;61288;53.446;-2.266;2022-09-09T06:22:47;100205.72;;;14.07;86.71
73101;BME280;61288;53.446;-2.266;2022-09-09T06:25:14;100208.31;;;14.07;86.74
73101;BME280;61288;53.446;-2.266;2022-09-09T06:27:40;100208.31;;;14.07;86.70
73101;BME280;61288;53.446;-2.266;2022-09-09T06:30:07;100215.28;;;14.06;86.96
73101;BME280;61288;53.446;-2.266;2022-09-09T06:32:33;100219.56;;;14.07;86.86
73101;BME280;61288;53.446;-2.266;2022-09-09T06:35:00;100219.56;;;14.07;86.95
73101;BME280;61288;53.446;-2.266;2022-09-09T06:37:26;100225.69;;;14.06;87.08
73101;BME280;61288;53.446;-2.266;2022-09-09T06:39:55;100225.63;;;14.08;87.53
73101;BME280;61288;53.446;-2.266;2022-09-09T06:42:20;100234.09;;;14.11;87.12
73101;BME280;61288;53.446;-2.266;2022-09-09T06:44:46;100234.81;;;14.13;87.14
73101;BME280;61288;53.446;-2.266;2022-09-09T06:47:11;100242.44;;;14.17;87.22
73101;BME280;61288;53.446;-2.266;2022-09-09T06:49:37;100237.03;;;14.20;87.31
73101;BME280;61288;53.446;-2.266;2022-09-09T06:52:02;100240.25;;;14.23;86.42
73101;BME280;61288;53.446;-2.266;2022-09-09T06:54:28;100238.22;;;14.28;86.95
73101;BME280;61288;53.446;-2.266;2022-09-09T06:56:54;100244.91;;;14.33;86.96
73101;BME280;61288;53.446;-2.266;2022-09-09T06:59:20;100250.75;;;14.36;86.79
73101;BME280;61288;53.446;-2.266;2022-09-09T07:01:45;100243.38;;;14.43;86.19
73101;BME280;61288;53.446;-2.266;2022-09-09T07:04:14;100249.97;;;14.49;86.23
73101;BME280;61288;53.446;-2.266;2022-09-09T07:06:41;100253.84;;;14.56;86.18
73101;BME280;61288;53.446;-2.266;2022-09-09T07:09:10;100249.16;;;14.61;85.64
73101;BME280;61288;53.446;-2.266;2022-09-09T07:11:40;100255.66;;;14.68;85.17
73101;BME280;61288;53.446;-2.266;2022-09-09T07:14:09;100265.09;;;14.71;84.71
73101;BME280;61288;53.446;-2.266;2022-09-09T07:16:37;100262.19;;;14.76;84.56
73101;BME280;61288;53.446;-2.266;2022-09-09T07:19:05;100256.66;;;14.80;84.53
73101;BME280;61288;53.446;-2.266;2022-09-09T07:21:32;100250.41;;;14.83;83.52
73101;BME280;61288;53.446;-2.266;2022-09-09T07:23:59;100258.03;;;14.86;83.67
73101;BME280;61288;53.446;-2.266;2022-09-09T07:26:29;100259.59;;;14.88;82.58
73101;BME280;61288;53.446;-2.266;2022-09-09T07:28:56;100255.97;;;14.91;82.86
73101;BME280;61288;53.446;-2.266;2022-09-09T07:31:28;100257.44;;;14.95;82.76
73101;BME280;61288;53.446;-2.266;2022-09-09T07:33:55;100265.06;;;14.98;82.60
73101;BME280;61288;53.446;-2.266;2022-09-09T07:36:26;100265.69;;;15.02;81.86
73101;BME280;61288;53.446;-2.266;2022-09-09T07:38:55;100273.97;;;15.09;81.91
73101;BME280;61288;53.446;-2.266;2022-09-09T07:41:25;100276.16;;;15.15;81.50
73101;BME280;61288;53.446;-2.266;2022-09-09T07:43:53;100281.78;;;15.22;81.78
73101;BME280;61288;53.446;-2.266;2022-09-09T07:46:26;100285.75;;;15.27;81.87
73101;BME280;61288;53.446;-2.266;2022-09-09T07:48:56;100280.44;;;15.29;80.63
73101;BME280;61288;53.446;-2.266;2022-09-09T07:51:30;100282.13;;;15.30;80.33
73101;BME280;61288;53.446;-2.266;2022-09-09T07:53:58;100286.28;;;15.33;80.18
73101;BME280;61288;53.446;-2.266;2022-09-09T07:56:25;100287.13;;;15.33;79.17
73101;BME280;61288;53.446;-2.266;2022-09-09T07:58:54;100289.53;;;15.36;78.97
73101;BME280;61288;53.446;-2.266;2022-09-09T08:01:24;100292.16;;;15.36;79.53
73101;BME280;61288;53.446;-2.266;2022-09-09T08:06:28;100301.13;;;15.45;79.54
73101;BME280;61288;53.446;-2.266;2022-09-09T08:08:54;100304.56;;;15.45;79.66
73101;BME280;61288;53.446;-2.266;2022-09-09T08:11:21;100301.88;;;15.47;79.03
73101;BME280;61288;53.446;-2.266;2022-09-09T08:13:49;100303.53;;;15.48;79.38
73101;BME280;61288;53.446;-2.266;2022-09-09T08:16:32;100307.91;;;15.48;79.92
73101;BME280;61288;53.446;-2.266;2022-09-09T08:18:59;100309.38;;;15.52;80.09
73101;BME280;61288;53.446;-2.266;2022-09-09T08:21:27;100315.66;;;15.49;79.57
73101;BME280;61288;53.446;-2.266;2022-09-09T08:23:54;100316.59;;;15.48;80.04
73101;BME280;61288;53.446;-2.266;2022-09-09T08:26:31;100322.03;;;15.45;80.02
73101;BME280;61288;53.446;-2.266;2022-09-09T08:28:59;100323.91;;;15.43;79.86
73101;BME280;61288;53.446;-2.266;2022-09-09T08:31:36;100321.09;;;15.46;80.01
73101;BME280;61288;53.446;-2.266;2022-09-09T08:34:04;100326.91;;;15.50;80.37
73101;BME280;61288;53.446;-2.266;2022-09-09T08:36:39;100330.25;;;15.52;80.12
73101;BME280;61288;53.446;-2.266;2022-09-09T08:39:08;100340.69;;;15.52;79.83
73101;BME280;61288;53.446;-2.266;2022-09-09T08:50:03;100349.19;;;15.55;81.12
73101;BME280;61288;53.446;-2.266;2022-09-09T08:55:22;100342.72;;;15.61;81.75
73101;BME280;61288;53.446;-2.266;2022-09-09T08:57:52;100339.69;;;15.67;80.65
73101;BME280;61288;53.446;-2.266;2022-09-09T09:00:20;100341.03;;;15.73;79.96
73101;BME280;61288;53.446;-2.266;2022-09-09T09:08:46;100354.22;;;15.84;80.13
73101;BME280;61288;53.446;-2.266;2022-09-09T09:11:17;100347.75;;;15.90;79.14
73101;BME280;61288;53.446;-2.266;2022-09-09T09:16:29;100355.53;;;16.29;77.79
73101;BME280;61288;53.446;-2.266;2022-09-09T09:19:02;100357.13;;;16.56;78.17
73101;BME280;61288;53.446;-2.266;2022-09-09T09:22:22;100362.16;;;16.83;77.48
73101;BME280;61288;53.446;-2.266;2022-09-09T09:24:55;100360.88;;;16.89;76.79
73101;BME280;61288;53.446;-2.266;2022-09-09T09:27:36;100365.19;;;16.90;76.97
73101;BME280;61288;53.446;-2.266;2022-09-09T09:30:23;100369.28;;;16.81;75.89
73101;BME280;61288;53.446;-2.266;2022-09-09T09:32:56;100376.63;;;16.76;76.81
73101;BME280;61288;53.446;-2.266;2022-09-09T09:35:23;100371.84;;;16.70;75.35
73101;BME280;61288;53.446;-2.266;2022-09-09T09:37:49;100381.91;;;16.63;75.43
73101;BME280;61288;53.446;-2.266;2022-09-09T09:40:17;100377.75;;;16.60;75.78
73101;BME280;61288;53.446;-2.266;2022-09-09T09:45:42;100380.09;;;16.77;76.53
73101;BME280;61288;53.446;-2.266;2022-09-09T09:48:11;100382.91;;;17.11;76.24
73101;BME280;61288;53.446;-2.266;2022-09-09T09:53:41;100389.59;;;18.09;73.24
73101;BME280;61288;53.446;-2.266;2022-09-09T09:56:11;100391.81;;;18.59;70.17
73101;BME280;61288;53.446;-2.266;2022-09-09T10:01:22;100389.13;;;19.26;68.39
73101;BME280;61288;53.446;-2.266;2022-09-09T10:06:38;100391.38;;;19.52;67.09
73101;BME280;61288;53.446;-2.266;2022-09-09T10:09:29;100391.63;;;19.70;66.70
73101;BME280;61288;53.446;-2.266;2022-09-09T10:23:28;100392.47;;;20.23;63.58
73101;BME280;61288;53.446;-2.266;2022-09-09T10:26:23;100397.41;;;19.85;62.32
73101;BME280;61288;53.446;-2.266;2022-09-09T10:29:15;100389.91;;;19.59;64.26
73101;BME280;61288;53.446;-2.266;2022-09-09T10:36:46;100396.81;;;19.18;66.60
73101;BME280;61288;53.446;-2.266;2022-09-09T10:47:57;100397.00;;;18.94;67.08
73101;BME280;61288;53.446;-2.266;2022-09-09T10:55:43;100406.59;;;18.49;69.30
73101;BME280;61288;53.446;-2.266;2022-09-09T10:58:22;100416.88;;;18.41;70.75
73101;BME280;61288;53.446;-2.266;2022-09-09T11:00:52;100418.19;;;18.24;73.44
73101;BME280;61288;53.446;-2.266;2022-09-09T11:03:22;100424.03;;;18.04;74.08
73101;BME280;61288;53.446;-2.266;2022-09-09T11:05:54;100423.63;;;17.86;74.73
73101;BME280;61288;53.446;-2.266;2022-09-09T11:08:29;100426.31;;;17.73;76.82
73101;BME280;61288;53.446;-2.266;2022-09-09T11:13:53;100418.53;;;17.49;79.33
73101;BME280;61288;53.446;-2.266;2022-09-09T11:19:22;100417.69;;;17.49;80.26
73101;BME280;61288;53.446;-2.266;2022-09-09T11:21:49;100430.31;;;17.55;79.98
73101;BME280;61288;53.446;-2.266;2022-09-09T11:24:43;100425.81;;;17.57;79.56
73101;BME280;61288;53.446;-2.266;2022-09-09T11:30:32;100432.50;;;17.72;79.26
73101;BME280;61288;53.446;-2.266;2022-09-09T11:41:06;100438.22;;;18.13;78.02
73101;BME280;61288;53.446;-2.266;2022-09-09T11:43:45;100439.53;;;18.19;75.38
73101;BME280;61288;53.446;-2.266;2022-09-09T11:46:13;100434.88;;;18.23;74.34
73101;BME280;61288;53.446;-2.266;2022-09-09T11:48:42;100442.28;;;18.17;76.21
73101;BME280;61288;53.446;-2.266;2022-09-09T11:56:48;100474.03;;;17.54;76.52
73101;BME280;61288;53.446;-2.266;2022-09-09T11:59:33;100477.38;;;17.32;77.45
73101;BME280;61288;53.446;-2.266;2022-09-09T12:02:03;100485.38;;;17.17;78.96
73101;BME280;61288;53.446;-2.266;2022-09-09T12:04:39;100476.03;;;17.02;80.09
73101;BME280;61288;53.446;-2.266;2022-09-09T12:09:50;100471.78;;;16.75;82.66
73101;BME280;61288;53.446;-2.266;2022-09-09T12:12:38;100470.41;;;16.69;83.62
73101;BME280;61288;53.446;-2.266;2022-09-09T12:17:30;100476.28;;;16.60;84.81
73101;BME280;61288;53.446;-2.266;2022-09-09T12:20:23;100477.66;;;16.53;84.26
73101;BME280;61288;53.446;-2.266;2022-09-09T12:23:18;100474.22;;;16.52;84.67
73101;BME280;61288;53.446;-2.266;2022-09-09T12:28:22;100484.66;;;16.52;85.40
73101;BME280;61288;53.446;-2.266;2022-09-09T12:30:59;100481.97;;;16.54;85.48
73101;BME280;61288;53.446;-2.266;2022-09-09T12:33:37;100489.06;;;16.52;86.40
73101;BME280;61288;53.446;-2.266;2022-09-09T12:36:05;100493.78;;;16.46;86.01
73101;BME280;61288;53.446;-2.266;2022-09-09T12:38:40;100498.50;;;16.41;86.75
73101;BME280;61288;53.446;-2.266;2022-09-09T12:41:23;100499.97;;;16.33;85.62
73101;BME280;61288;53.446;-2.266;2022-09-09T12:44:09;100498.06;;;16.22;85.46
73101;BME280;61288;53.446;-2.266;2022-09-09T12:46:40;100494.81;;;16.18;86.08
73101;BME280;61288;53.446;-2.266;2022-09-09T12:51:51;100498.06;;;16.09;86.76
73101;BME280;61288;53.446;-2.266;2022-09-09T12:54:17;100506.53;;;16.12;86.70
73101;BME280;61288;53.446;-2.266;2022-09-09T12:56:46;100504.66;;;16.14;87.24
73101;BME280;61288;53.446;-2.266;2022-09-09T12:59:26;100503.72;;;16.15;87.06
73101;BME280;61288;53.446;-2.266;2022-09-09T13:01:56;100505.91;;;16.22;86.25
73101;BME280;61288;53.446;-2.266;2022-09-09T13:04:22;100502.88;;;16.28;86.91
73101;BME280;61288;53.446;-2.266;2022-09-09T13:06:48;100509.47;;;16.34;86.72
73101;BME280;61288;53.446;-2.266;2022-09-09T13:09:15;100512.69;;;16.37;87.54
73101;BME280;61288;53.446;-2.266;2022-09-09T13:11:42;100515.09;;;16.53;87.99
73101;BME280;61288;53.446;-2.266;2022-09-09T13:14:33;100522.78;;;17.07;88.71
73101;BME280;61288;53.446;-2.266;2022-09-09T13:17:02;100509.03;;;17.53;86.81
73101;BME280;61288;53.446;-2.266;2022-09-09T13:19:38;100508.75;;;18.05;86.14
73101;BME280;61288;53.446;-2.266;2022-09-09T13:22:21;100506.31;;;18.49;81.11
73101;BME280;61288;53.446;-2.266;2022-09-09T13:24:47;100502.47;;;18.87;78.40
73101;BME280;61288;53.446;-2.266;2022-09-09T13:27:33;100504.69;;;19.26;80.17
73101;BME280;61288;53.446;-2.266;2022-09-09T13:30:00;100500.28;;;19.59;77.52
73101;BME280;61288;53.446;-2.266;2022-09-09T13:32:29;100496.34;;;19.86;74.34
73101;BME280;61288;53.446;-2.266;2022-09-09T13:35:01;100503.88;;;20.12;74.45
73101;BME280;61288;53.446;-2.266;2022-09-09T13:37:35;100499.44;;;20.44;73.88
73101;BME280;61288;53.446;-2.266;2022-09-09T13:40:03;100502.25;;;20.52;70.88
73101;BME280;61288;53.446;-2.266;2022-09-09T13:42:32;100507.03;;;20.68;71.65
73101;BME280;61288;53.446;-2.266;2022-09-09T13:45:00;100504.84;;;20.73;70.33
73101;BME280;61288;53.446;-2.266;2022-09-09T13:47:34;100504.09;;;21.02;69.28
73101;BME280;61288;53.446;-2.266;2022-09-09T13:50:25;100504.41;;;21.19;69.59
73101;BME280;61288;53.446;-2.266;2022-09-09T13:52:53;100505.28;;;21.39;68.75
73101;BME280;61288;53.446;-2.266;2022-09-09T13:55:21;100496.97;;;21.44;67.99
73101;BME280;61288;53.446;-2.266;2022-09-09T14:00:23;100503.06;;;21.84;65.35
73101;BME280;61288;53.446;-2.266;2022-09-09T14:02:50;100501.19;;;22.14;67.86
73101;BME280;61288;53.446;-2.266;2022-09-09T14:05:19;100518.88;;;22.03;62.97
73101;BME280;61288;53.446;-2.266;2022-09-09T14:07:45;100520.22;;;21.19;57.51
73101;BME280;61288;53.446;-2.266;2022-09-09T14:10:14;100539.88;;;20.43;63.97
73101;BME280;61288;53.446;-2.266;2022-09-09T14:12:40;100541.53;;;19.47;68.32
73101;BME280;61288;53.446;-2.266;2022-09-09T14:15:07;100547.31;;;18.50;70.21
73101;BME280;61288;53.446;-2.266;2022-09-09T14:17:33;100542.75;;;17.94;74.07
73101;BME280;61288;53.446;-2.266;2022-09-09T14:19:59;100546.66;;;17.52;75.96
73101;BME280;61288;53.446;-2.266;2022-09-09T14:22:25;100539.75;;;17.14;76.78
73101;BME280;61288;53.446;-2.266;2022-09-09T14:24:51;100540.44;;;16.79;78.59
73101;BME280;61288;53.446;-2.266;2022-09-09T14:27:17;100547.44;;;16.52;79.50
73101;BME280;61288;53.446;-2.266;2022-09-09T14:29:44;100538.25;;;16.34;82.27
73101;BME280;61288;53.446;-2.266;2022-09-09T14:32:10;100538.44;;;16.30;82.97
73101;BME280;61288;53.446;-2.266;2022-09-09T14:34:37;100543.16;;;16.25;84.49
73101;BME280;61288;53.446;-2.266;2022-09-09T14:37:02;100537.06;;;16.12;84.94
73101;BME280;61288;53.446;-2.266;2022-09-09T14:39:28;100534.22;;;16.02;85.36
73101;BME280;61288;53.446;-2.266;2022-09-09T14:41:54;100541.44;;;15.98;85.23
73101;BME280;61288;53.446;-2.266;2022-09-09T14:44:23;100550.22;;;15.97;85.31
73101;BME280;61288;53.446;-2.266;2022-09-09T14:46:49;100542.47;;;15.96;85.81
73101;BME280;61288;53.446;-2.266;2022-09-09T14:49:15;100549.88;;;16.02;86.21
73101;BME280;61288;53.446;-2.266;2022-09-09T14:51:43;100553.69;;;16.11;86.49
73101;BME280;61288;53.446;-2.266;2022-09-09T14:54:09;100560.91;;;16.20;87.25
73101;BME280;61288;53.446;-2.266;2022-09-09T14:56:36;100565.41;;;16.31;87.64
73101;BME280;61288;53.446;-2.266;2022-09-09T14:59:02;100560.19;;;16.44;86.58
73101;BME280;61288;53.446;-2.266;2022-09-09T15:01:31;100561.78;;;16.59;88.91
73101;BME280;61288;53.446;-2.266;2022-09-09T15:04:00;100568.16;;;16.68;86.11
73101;BME280;61288;53.446;-2.266;2022-09-09T15:06:32;100565.44;;;16.70;86.93
73101;BME280;61288;53.446;-2.266;2022-09-09T15:08:58;100568.78;;;16.72;85.73
73101;BME280;61288;53.446;-2.266;2022-09-09T15:11:27;100565.44;;;16.70;86.93
73101;BME280;61288;53.446;-2.266;2022-09-09T15:13:55;100566.81;;;16.75;86.48
73101;BME280;61288;53.446;-2.266;2022-09-09T15:16:24;100569.22;;;16.79;85.58